Terminal Aerodrome Forecast
Issued by NWS Pocatello, ID

Home | Current Version | Previous Version | Text Only | Print | Product List | Glossary On
Versions: 1 2 3 4 5 6 7 8 9 10 11 12
827
FTUS45 KPIH 222337
TAFIDA
TAF
KIDA 222337Z 2300/2324 21008KT P6SM SKC
     FM230300 20006KT P6SM FEW070 SCT250
     FM231600 21010KT P6SM VCSH OVC100
     FM232100 20011KT P6SM VCTS OVC080CB=

USA.gov is the U.S. government's official web portal to all federal, state and local government web resources and services.